Time;durP1;ratioP1;P1;durP2;ratioP2;P2;SDS_P1;SDS_P2;PMS_P1;PMS_P2;Temp;Humidity;BMP_temperature;BMP_pressure;BME280_temperature;BME280_humidity;BME280_pressure;Samples;Min_cycle;Max_cycle;Signal;HPM_P1;HPM_P2
2023/05/17 00:01:55;;;;;;;12.63;3.85;;;;;;;13.46;75.87;94199.56;5045846;28;20037;-73
2023/05/17 00:04:21;;;;;;;13.05;4.10;;;;;;;13.30;76.75;94203.75;5025524;28;20114;-72
2023/05/17 00:06:46;;;;;;;8.65;4.07;;;;;;;13.21;76.72;94194.25;5043884;28;20027;-73
2023/05/17 00:09:12;;;;;;;7.45;3.53;;;;;;;13.13;76.88;94178.56;5044951;28;20531;-73
2023/05/17 00:11:38;;;;;;;10.38;3.70;;;;;;;13.04;77.36;94184.72;5043261;28;20044;-73
2023/05/17 00:14:04;;;;;;;10.50;3.33;;;;;;;13.07;77.29;94184.41;5045201;28;20526;-73
2023/05/17 00:16:30;;;;;;;9.95;3.25;;;;;;;12.91;77.71;94185.97;5027198;28;20162;-72
2023/05/17 00:18:55;;;;;;;9.68;3.40;;;;;;;12.93;77.74;94181.44;5026717;28;20510;-72
2023/05/17 00:21:21;;;;;;;8.80;3.30;;;;;;;12.93;77.20;94176.22;5043846;28;20033;-72
2023/05/17 00:23:46;;;;;;;8.30;3.40;;;;;;;12.92;76.32;94189.38;5044831;28;20111;-72
2023/05/17 00:26:12;;;;;;;9.55;4.20;;;;;;;12.91;75.41;94178.16;5025860;28;20040;-72
2023/05/17 00:28:38;;;;;;;8.65;2.70;;;;;;;13.02;75.02;94191.88;5044010;28;20522;-73
2023/05/17 00:31:03;;;;;;;8.63;3.47;;;;;;;13.02;75.17;94191.88;5045175;28;20088;-73
2023/05/17 00:33:29;;;;;;;12.40;3.33;;;;;;;13.01;74.79;94192.84;5029670;28;20029;-73
2023/05/17 00:35:54;;;;;;;10.88;3.78;;;;;;;12.95;74.57;94189.91;5028050;28;20055;-73
2023/05/17 00:38:20;;;;;;;7.72;2.92;;;;;;;12.90;75.36;94199.19;5025787;28;20090;-73
2023/05/17 00:40:45;;;;;;;9.00;3.25;;;;;;;12.88;75.65;94191.50;5023969;28;20037;-73
2023/05/17 00:43:11;;;;;;;6.70;3.05;;;;;;;12.74;76.75;94192.09;5046336;28;20500;-72
2023/05/17 00:45:36;;;;;;;8.85;3.53;;;;;;;12.71;76.16;94195.00;5027833;28;20040;-73
2023/05/17 00:48:02;;;;;;;8.10;2.88;;;;;;;12.57;76.46;94179.94;5027730;28;20086;-73
2023/05/17 00:50:27;;;;;;;9.52;2.85;;;;;;;12.52;77.12;94183.81;5044328;28;20025;-72
2023/05/17 00:52:53;;;;;;;10.00;3.33;;;;;;;12.54;77.41;94201.91;5044994;28;20044;-73
2023/05/17 00:55:18;;;;;;;6.13;3.22;;;;;;;12.53;76.69;94208.88;5045305;28;20396;-73
2023/05/17 00:57:44;;;;;;;8.10;3.03;;;;;;;12.49;77.07;94198.94;5043687;28;20498;-72
2023/05/17 01:00:11;;;;;;;6.28;3.30;;;;;;;12.50;76.95;94201.38;5028689;28;20025;-72
2023/05/17 01:02:36;;;;;;;11.82;3.78;;;;;;;12.49;76.49;94199.75;5028695;28;20457;-72
2023/05/17 01:05:02;;;;;;;7.78;3.38;;;;;;;12.62;76.01;94212.38;5032543;28;20041;-72
2023/05/17 01:07:27;;;;;;;6.72;3.40;;;;;;;12.59;75.92;94204.03;5031082;28;20087;-72
2023/05/17 01:09:53;;;;;;;10.57;3.47;;;;;;;12.37;76.76;94197.56;5032057;28;20191;-73
2023/05/17 01:12:45;;;;;;;11.43;2.85;;;;;;;12.45;76.81;94208.03;5031248;28;20056;-73
2023/05/17 01:15:27;;;;;;;9.35;3.55;;;;;;;12.33;77.53;94189.22;5049460;28;20067;-73
2023/05/17 01:18:09;;;;;;;10.13;3.30;;;;;;;12.36;77.15;94194.13;5031788;28;20557;-73
2023/05/17 01:20:40;;;;;;;8.13;3.70;;;;;;;12.38;77.61;94204.41;5032145;28;20036;-72
2023/05/17 01:23:43;;;;;;;8.35;3.75;;;;;;;12.50;76.62;94204.00;5049049;28;20109;-72
2023/05/17 01:26:17;;;;;;;8.30;4.07;;;;;;;12.36;77.06;94198.53;5046549;28;20048;-73
2023/05/17 01:28:48;;;;;;;10.93;3.30;;;;;;;12.28;77.64;94191.47;5015598;28;20434;-72
2023/05/17 01:31:13;;;;;;;;;;;;;;;12.34;77.33;94208.28;5032296;28;20044;-72
2023/05/17 01:33:39;;;;;;;10.43;3.35;;;;;;;12.27;77.19;94205.47;5050449;28;20306;-73
2023/05/17 01:36:05;;;;;;;8.43;3.85;;;;;;;12.21;77.47;94200.88;5047430;28;20033;-72
2023/05/17 01:38:30;;;;;;;7.65;3.60;;;;;;;12.26;77.38;94203.84;5033265;28;20098;-73
2023/05/17 01:41:01;;;;;;;7.78;3.63;;;;;;;12.10;77.85;94193.31;5031830;28;20021;-73
2023/05/17 01:43:35;;;;;;;10.13;3.90;;;;;;;12.07;78.15;94212.66;5031788;28;20029;-73
2023/05/17 01:46:17;;;;;;;8.30;3.90;;;;;;;12.09;78.08;94208.13;5045979;28;20511;-72
2023/05/17 01:48:55;;;;;;;8.40;3.88;;;;;;;12.03;78.88;94206.91;5032117;28;20127;-72
2023/05/17 01:51:21;;;;;;;10.95;5.10;;;;;;;12.08;78.33;94196.88;5047914;28;20033;-73
2023/05/17 01:53:48;;;;;;;12.02;4.57;;;;;;;12.04;78.67;94190.34;5047767;28;20033;-72
2023/05/17 01:56:21;;;;;;;11.15;4.32;;;;;;;12.05;78.11;94184.16;5030244;28;20033;-72
2023/05/17 01:58:47;;;;;;;8.35;4.13;;;;;;;12.11;77.84;94195.75;5032132;28;20032;-72
2023/05/17 02:01:14;;;;;;;8.88;4.68;;;;;;;12.14;77.61;94199.84;5031469;28;20491;-72
2023/05/17 02:03:39;;;;;;;8.90;4.25;;;;;;;12.05;78.02;94196.34;5047066;28;20086;-72
2023/05/17 02:06:05;;;;;;;9.52;4.25;;;;;;;12.11;78.29;94192.34;5030633;28;20041;-73
2023/05/17 02:08:30;;;;;;;11.45;4.32;;;;;;;12.10;78.18;94182.91;5047479;28;20045;-72
2023/05/17 02:10:55;;;;;;;8.52;4.65;;;;;;;12.05;78.21;94191.97;5030956;28;20343;-72
2023/05/17 02:13:21;;;;;;;8.48;5.25;;;;;;;12.16;77.47;94179.69;5047200;28;20503;-73
2023/05/17 02:15:46;;;;;;;11.95;4.95;;;;;;;12.08;77.89;94181.25;5031131;28;20822;-72
2023/05/17 02:18:12;;;;;;;9.25;4.90;;;;;;;12.03;78.17;94183.47;5047283;28;20029;-73
2023/05/17 02:20:37;;;;;;;7.88;4.90;;;;;;;11.96;78.49;94171.25;5031507;28;20029;-72
2023/05/17 02:23:03;;;;;;;10.38;5.35;;;;;;;12.05;78.26;94188.53;5030641;28;20044;-73
2023/05/17 02:25:28;;;;;;;11.00;5.40;;;;;;;12.12;78.14;94194.78;5031263;28;20025;-72
2023/05/17 02:27:54;;;;;;;13.13;6.00;;;;;;;12.10;78.03;94191.53;5046154;28;20033;-73
2023/05/17 02:30:21;;;;;;;10.45;5.85;;;;;;;12.12;78.15;94187.00;5030121;28;20033;-73
2023/05/17 02:32:46;;;;;;;10.70;6.88;;;;;;;12.03;78.09;94164.44;5030781;28;20029;-73
2023/05/17 02:35:12;;;;;;;11.52;7.15;;;;;;;12.07;77.88;94179.63;5047987;28;20033;-73
2023/05/17 02:37:37;;;;;;;14.35;6.38;;;;;;;12.15;77.93;94191.06;5045307;28;20029;-73
2023/05/17 02:40:09;;;;;;;9.93;7.13;;;;;;;12.16;77.85;94193.50;5048697;28;20032;-72
2023/05/17 02:42:35;;;;;;;11.75;7.45;;;;;;;12.19;77.60;94197.59;5047182;28;20116;-72
2023/05/17 02:45:01;;;;;;;11.80;7.65;;;;;;;12.23;77.57;94193.72;5014976;28;20033;-72
2023/05/17 02:47:26;;;;;;;13.77;6.35;;;;;;;12.05;77.89;94191.97;5045307;28;20082;-72
2023/05/17 02:49:52;;;;;;;12.85;6.80;;;;;;;12.19;77.94;94213.22;5031037;28;20044;-72
2023/05/17 02:52:17;;;;;;;10.93;6.38;;;;;;;12.19;77.58;94223.63;5045607;28;20033;-72
2023/05/17 02:54:43;;;;;;;10.95;6.57;;;;;;;12.03;77.66;94217.31;5030793;28;20388;-72
2023/05/17 02:57:09;;;;;;;15.85;8.50;;;;;;;12.12;77.18;94227.81;5045543;28;20036;-73
2023/05/17 02:59:34;;;;;;;12.15;7.70;;;;;;;12.11;77.22;94221.78;5046579;28;20079;-72
2023/05/17 03:02:00;;;;;;;15.70;8.57;;;;;;;11.88;77.71;94218.81;5029819;28;20040;-73
2023/05/17 03:04:25;;;;;;;15.07;8.52;;;;;;;11.78;77.81;94225.84;5048214;28;20095;-73
2023/05/17 03:06:51;;;;;;;13.90;8.07;;;;;;;11.73;77.96;94244.53;5045662;28;20082;-72
2023/05/17 03:09:17;;;;;;;13.52;9.00;;;;;;;11.73;78.20;94241.09;5030027;28;20049;-72
2023/05/17 03:11:42;;;;;;;16.70;9.77;;;;;;;11.75;78.35;94242.56;5015798;28;20037;-72
2023/05/17 03:14:08;;;;;;;14.90;9.60;;;;;;;11.76;78.18;94239.03;5030300;28;20063;-72
2023/05/17 03:16:33;;;;;;;11.77;8.85;;;;;;;11.65;78.63;94241.84;5045465;28;20071;-72
2023/05/17 03:18:59;;;;;;;13.70;9.15;;;;;;;11.71;78.44;94256.06;5029251;28;20029;-72
2023/05/17 03:21:24;;;;;;;11.20;8.57;;;;;;;11.68;78.61;94254.56;5046811;28;20055;-73
2023/05/17 03:23:50;;;;;;;15.52;9.88;;;;;;;11.56;78.81;94234.91;5047769;28;20029;-72
2023/05/17 03:26:17;;;;;;;12.95;9.57;;;;;;;11.50;78.97;94238.91;5044425;28;20400;-72
2023/05/17 03:28:43;;;;;;;14.65;9.77;;;;;;;11.54;79.07;94240.28;5047654;28;20064;-72
2023/05/17 03:31:08;;;;;;;17.13;11.43;;;;;;;11.59;79.26;94250.25;5046265;28;20071;-73
2023/05/17 03:33:34;;;;;;;12.98;9.90;;;;;;;11.57;79.09;94236.56;5046065;28;20506;-72
2023/05/17 03:35:59;;;;;;;14.23;10.02;;;;;;;11.63;79.06;94244.59;5045538;28;20510;-73
2023/05/17 03:38:25;;;;;;;15.52;10.27;;;;;;;11.57;78.81;94247.78;5029359;28;20506;-72
2023/05/17 03:40:51;;;;;;;15.18;11.07;;;;;;;11.56;77.72;94245.31;5047561;28;20033;-72
2023/05/17 03:43:16;;;;;;;13.60;10.35;;;;;;;11.50;77.99;94238.09;5047153;28;20033;-72
2023/05/17 03:45:42;;;;;;;17.83;10.50;;;;;;;11.50;78.33;94251.91;5030043;28;20035;-72
2023/05/17 03:48:07;;;;;;;13.90;9.93;;;;;;;11.43;79.14;94232.69;5046761;28;20545;-73
2023/05/17 03:50:33;;;;;;;14.85;9.60;;;;;;;11.41;79.77;94245.00;5047020;28;20104;-73
2023/05/17 03:52:58;;;;;;;14.25;10.20;;;;;;;11.48;80.22;94251.25;5029251;28;20037;-73
2023/05/17 03:55:23;;;;;;;15.57;10.30;;;;;;;11.47;80.47;94248.78;5046459;28;20048;-72
2023/05/17 03:57:49;;;;;;;14.57;10.75;;;;;;;11.63;80.53;94261.97;5045908;28;20029;-73
2023/05/17 04:00:20;;;;;;;16.35;10.98;;;;;;;11.61;80.48;94251.72;5045912;28;20041;-73
2023/05/17 04:02:46;;;;;;;16.08;10.45;;;;;;;11.76;80.21;94246.03;5045727;28;20039;-73
2023/05/17 04:05:12;;;;;;;16.48;11.13;;;;;;;11.84;80.13;94246.09;5029783;28;20040;-72
2023/05/17 04:07:37;;;;;;;17.00;11.05;;;;;;;12.06;79.47;94245.69;5044434;28;20090;-73
2023/05/17 04:10:04;;;;;;;17.08;11.23;;;;;;;12.32;79.06;94246.69;5012527;28;20507;-73
2023/05/17 04:12:29;;;;;;;15.75;10.18;;;;;;;12.72;77.29;94246.94;5012452;28;20033;-73
2023/05/17 04:14:55;;;;;;;15.85;10.25;;;;;;;13.48;74.63;94247.16;5048028;28;20068;-72
2023/05/17 04:17:20;;;;;;;15.82;9.95;;;;;;;14.07;71.96;94240.94;5046106;28;20480;-73
2023/05/17 04:19:46;;;;;;;16.00;9.40;;;;;;;14.77;69.40;94249.28;5012741;28;20029;-73
2023/05/17 04:22:11;;;;;;;14.75;8.55;;;;;;;14.82;67.45;94239.09;5028575;28;20037;-73
2023/05/17 04:24:37;;;;;;;16.38;8.90;;;;;;;14.75;67.50;94234.56;5025978;28;20029;-73
2023/05/17 04:27:06;;;;;;;13.27;8.98;;;;;;;14.49;68.58;94257.44;5042735;28;20522;-73
2023/05/17 04:29:31;;;;;;;13.85;9.75;;;;;;;14.36;68.66;94225.75;5041325;28;20033;-73
2023/05/17 04:31:57;;;;;;;16.23;9.80;;;;;;;14.68;68.41;94261.53;5039765;28;20044;-73
2023/05/17 04:34:23;;;;;;;14.88;9.65;;;;;;;15.33;66.79;94250.09;5041691;28;20037;-73
2023/05/17 04:36:49;;;;;;;13.93;9.30;;;;;;;15.74;65.49;94244.69;5041181;28;20033;-73
2023/05/17 04:39:14;;;;;;;18.15;10.88;;;;;;;15.98;62.82;94238.50;5045586;28;20108;-72
2023/05/17 04:41:40;;;;;;;13.50;10.40;;;;;;;16.00;62.59;94247.00;5045283;28;20033;-72
2023/05/17 04:44:08;;;;;;;14.30;9.90;;;;;;;16.56;60.40;94231.00;5049152;28;20033;-71
2023/05/17 04:46:33;;;;;;;17.00;10.23;;;;;;;16.93;58.64;94238.84;5027041;28;20051;-72
2023/05/17 04:48:59;;;;;;;12.20;9.77;;;;;;;16.40;59.84;94239.81;5028899;28;20419;-72
2023/05/17 04:51:25;;;;;;;14.68;10.07;;;;;;;16.40;60.27;94232.75;5015156;28;20057;-72
2023/05/17 04:53:51;;;;;;;15.60;9.98;;;;;;;16.47;61.04;94236.31;5031699;28;20059;-73
2023/05/17 04:56:17;;;;;;;13.85;9.85;;;;;;;16.51;60.34;94234.16;5047952;28;20503;-73
2023/05/17 04:58:42;;;;;;;14.57;9.50;;;;;;;16.47;60.30;94230.28;5010697;28;20063;-72
2023/05/17 05:01:08;;;;;;;16.05;9.70;;;;;;;16.23;60.70;94228.66;5042363;28;20060;-73
2023/05/17 05:03:33;;;;;;;12.25;10.45;;;;;;;16.37;61.02;94235.75;5048003;28;20048;-73
2023/05/17 05:05:59;;;;;;;12.10;8.60;;;;;;;16.23;60.13;94216.34;5031965;28;20043;-73
2023/05/17 05:08:24;;;;;;;12.52;9.27;;;;;;;16.47;60.36;94231.06;5015046;28;20049;-73
2023/05/17 05:10:50;;;;;;;10.65;7.90;;;;;;;16.46;59.52;94242.53;5049009;28;20033;-73
2023/05/17 05:13:16;;;;;;;14.35;8.13;;;;;;;16.40;60.16;94248.50;5047254;28;20044;-73
2023/05/17 05:15:41;;;;;;;17.90;9.68;;;;;;;16.20;60.15;94248.16;5032934;28;20032;-73
2023/05/17 05:18:06;;;;;;;13.50;9.25;;;;;;;15.73;61.44;94230.78;5047746;28;20040;-73
2023/05/17 05:20:32;;;;;;;11.98;8.35;;;;;;;15.64;62.69;94244.88;5049155;28;20029;-73
2023/05/17 05:22:59;;;;;;;11.43;8.48;;;;;;;15.39;62.54;94252.03;5030288;28;20230;-73
2023/05/17 05:25:25;;;;;;;14.35;8.48;;;;;;;15.49;63.11;94252.66;5048868;28;20055;-72
2023/05/17 05:27:51;;;;;;;13.57;8.60;;;;;;;15.71;62.97;94247.66;5030096;28;20052;-73
2023/05/17 05:30:20;;;;;;;11.82;8.15;;;;;;;15.99;62.05;94250.59;5048766;28;20040;-73
2023/05/17 05:32:48;;;;;;;12.73;7.63;;;;;;;15.67;61.49;94244.53;5048329;28;20410;-73
2023/05/17 05:35:13;;;;;;;14.57;8.60;;;;;;;15.85;61.76;94246.91;5015924;28;20574;-73
2023/05/17 05:37:38;;;;;;;13.18;8.00;;;;;;;16.17;61.13;94243.28;5027683;28;20025;-73
2023/05/17 05:40:05;;;;;;;12.35;8.95;;;;;;;16.41;60.98;94249.31;5048696;28;20560;-73
2023/05/17 05:42:30;;;;;;;17.30;8.80;;;;;;;16.17;61.01;94259.00;5049316;28;20041;-73
2023/05/17 05:44:55;;;;;;;13.52;8.45;;;;;;;16.42;60.73;94246.50;5026412;28;20063;-73
2023/05/17 05:47:21;;;;;;;13.05;8.27;;;;;;;16.13;60.71;94242.00;5014388;28;20053;-73
2023/05/17 05:49:46;;;;;;;11.43;8.05;;;;;;;16.00;61.35;94247.00;5049497;28;20479;-72
2023/05/17 05:52:12;;;;;;;14.68;8.00;;;;;;;16.25;61.31;94258.13;5029637;28;20041;-73
2023/05/17 05:54:37;;;;;;;13.50;7.93;;;;;;;16.51;60.18;94245.44;5048211;28;20033;-73
2023/05/17 05:57:03;;;;;;;13.63;8.65;;;;;;;16.55;60.48;94256.41;5027658;28;20102;-73
2023/05/17 05:59:28;;;;;;;16.25;8.43;;;;;;;16.31;61.42;94260.03;5042250;28;20040;-72
2023/05/17 06:01:54;;;;;;;11.68;8.00;;;;;;;16.23;61.71;94274.00;5046405;28;20041;-73
2023/05/17 06:04:19;;;;;;;16.08;8.38;;;;;;;16.22;62.31;94271.59;5013662;28;20036;-73
2023/05/17 06:06:45;;;;;;;13.43;8.90;;;;;;;16.63;61.63;94269.47;5029972;28;20044;-73
2023/05/17 06:09:13;;;;;;;13.70;8.05;;;;;;;16.58;60.85;94276.22;5049509;28;20048;-73
2023/05/17 06:11:38;;;;;;;12.15;7.55;;;;;;;16.47;61.16;94270.41;5047423;28;20032;-72
2023/05/17 06:14:04;;;;;;;11.43;7.72;;;;;;;16.68;61.06;94271.53;5044550;28;20355;-73
2023/05/17 06:16:29;;;;;;;17.98;10.77;;;;;;;16.59;60.95;94262.94;5036895;28;20067;-73
2023/05/17 06:18:55;;;;;;;12.23;7.80;;;;;;;16.76;60.01;94274.09;5024877;28;20037;-73
2023/05/17 06:21:21;;;;;;;12.10;7.53;;;;;;;16.59;60.75;94268.16;5038181;28;20052;-73
2023/05/17 06:23:49;;;;;;;9.60;7.55;;;;;;;16.56;61.97;94278.19;5042215;28;20033;-73
2023/05/17 06:26:14;;;;;;;13.30;8.18;;;;;;;16.54;62.35;94281.78;5039756;28;20036;-73
2023/05/17 06:28:40;;;;;;;13.45;8.23;;;;;;;16.75;61.14;94275.09;5026795;28;20415;-73
2023/05/17 06:31:05;;;;;;;12.68;7.55;;;;;;;16.56;60.76;94272.97;5011035;28;20454;-72
2023/05/17 06:33:31;;;;;;;12.80;7.50;;;;;;;16.68;61.08;94276.78;5031059;28;20044;-73
2023/05/17 06:35:56;;;;;;;11.60;8.00;;;;;;;16.53;61.66;94285.41;5046313;28;20029;-73
2023/05/17 06:38:22;;;;;;;12.88;7.68;;;;;;;16.38;62.25;94281.94;5030025;28;20038;-72
2023/05/17 06:40:52;;;;;;;14.30;8.52;;;;;;;16.45;62.57;94287.28;5048651;28;20159;-73
2023/05/17 06:43:18;;;;;;;14.50;9.00;;;;;;;16.19;63.54;94290.28;5030511;28;20028;-72
2023/05/17 06:45:43;;;;;;;16.42;8.82;;;;;;;16.05;64.20;94290.03;5046236;28;20051;-72
2023/05/17 06:48:08;;;;;;;13.75;9.00;;;;;;;15.81;65.44;94290.97;5042398;28;20481;-73
2023/05/17 06:50:34;;;;;;;15.30;9.43;;;;;;;15.81;64.92;94280.50;5040930;28;20025;-72
2023/05/17 06:53:00;;;;;;;14.55;8.95;;;;;;;15.76;64.76;94276.75;5046549;28;20025;-73
2023/05/17 06:55:25;;;;;;;15.98;9.82;;;;;;;15.96;65.01;94279.75;5030615;28;20035;-72
2023/05/17 06:57:51;;;;;;;14.88;9.90;;;;;;;16.03;64.92;94289.38;5045582;28;20391;-72
2023/05/17 07:00:17;;;;;;;14.43;9.60;;;;;;;15.83;65.71;94267.22;5045979;28;20029;-72
2023/05/17 07:02:42;;;;;;;14.70;9.98;;;;;;;16.00;65.38;94292.34;5029618;28;20487;-72
2023/05/17 07:05:08;;;;;;;15.35;10.02;;;;;;;16.04;65.94;94298.84;5030454;28;20029;-72
2023/05/17 07:07:33;;;;;;;15.80;8.48;;;;;;;15.96;66.08;94298.09;5042453;28;20071;-72
2023/05/17 07:09:58;;;;;;;14.05;9.00;;;;;;;16.05;66.27;94287.41;5047194;28;20041;-72
2023/05/17 07:12:24;;;;;;;14.32;8.63;;;;;;;16.32;65.44;94298.34;5012038;28;20423;-71
2023/05/17 07:14:50;;;;;;;14.95;9.00;;;;;;;16.22;66.42;94300.41;5048034;28;20592;-74
2023/05/17 07:17:15;;;;;;;14.40;8.88;;;;;;;16.08;67.76;94296.72;5013194;28;20099;-76
2023/05/17 07:19:40;;;;;;;12.88;8.15;;;;;;;16.15;66.80;94304.69;5047370;28;20037;-76
2023/05/17 07:22:06;;;;;;;13.48;8.43;;;;;;;16.00;66.03;94305.44;5047162;28;20037;-76
2023/05/17 07:24:31;;;;;;;16.38;9.07;;;;;;;16.04;66.29;94301.47;5045906;28;20040;-76
2023/05/17 07:26:57;;;;;;;13.77;8.55;;;;;;;15.91;67.40;94274.22;5046494;28;20032;-76
2023/05/17 07:29:23;;;;;;;14.18;8.55;;;;;;;15.95;66.17;94309.56;5030160;28;20041;-76
2023/05/17 07:31:50;;;;;;;14.73;9.10;;;;;;;15.96;66.26;94295.47;5046913;28;20071;-76
2023/05/17 07:34:16;;;;;;;12.07;7.70;;;;;;;16.03;66.31;94306.91;5030294;28;20418;-76
2023/05/17 07:36:41;;;;;;;14.00;8.55;;;;;;;16.03;66.28;94310.31;5044215;28;20025;-76
2023/05/17 07:39:08;;;;;;;12.07;7.95;;;;;;;15.61;66.49;94301.00;5049222;28;20037;-76
2023/05/17 07:41:35;;;;;;;14.02;7.80;;;;;;;15.37;66.54;94275.75;5029794;28;20036;-76
2023/05/17 07:44:00;;;;;;;13.57;8.15;;;;;;;15.59;68.00;94316.06;5046977;28;20787;-76
2023/05/17 07:46:26;;;;;;;14.90;9.10;;;;;;;15.63;67.88;94320.00;5044252;28;20025;-76
2023/05/17 07:48:51;;;;;;;14.23;9.15;;;;;;;15.74;68.34;94313.59;5024944;28;20128;-76
2023/05/17 07:51:17;;;;;;;13.95;9.10;;;;;;;15.73;67.46;94303.28;5045929;28;20047;-76
2023/05/17 07:53:42;;;;;;;16.50;9.38;;;;;;;15.80;67.38;94310.28;5029250;28;20033;-76
2023/05/17 07:56:07;;;;;;;13.88;9.35;;;;;;;15.80;67.27;94309.47;5028010;28;20041;-76
2023/05/17 07:58:33;;;;;;;15.95;9.52;;;;;;;15.51;68.84;94321.31;5045570;28;20032;-76
2023/05/17 08:00:58;;;;;;;15.38;8.38;;;;;;;15.69;67.65;94317.72;5026529;28;20041;-75
2023/05/17 08:03:24;;;;;;;15.45;8.52;;;;;;;15.73;67.50;94313.75;5046260;28;20033;-76
2023/05/17 08:05:49;;;;;;;14.80;9.30;;;;;;;15.70;67.78;94312.28;5045802;28;20029;-76
2023/05/17 08:08:15;;;;;;;17.58;8.80;;;;;;;15.84;67.29;94310.75;5045366;28;20057;-76
2023/05/17 08:10:42;;;;;;;14.18;7.50;;;;;;;16.02;65.79;94308.72;5047238;28;20106;-76
2023/05/17 08:13:07;;;;;;;14.65;8.88;;;;;;;15.93;67.23;94304.47;5029471;28;20041;-76
2023/05/17 08:15:33;;;;;;;15.07;8.43;;;;;;;15.82;66.89;94307.47;5029952;28;20565;-75
2023/05/17 08:17:58;;;;;;;13.82;8.73;;;;;;;15.92;66.83;94297.63;5045830;28;20032;-76
2023/05/17 08:20:24;;;;;;;14.50;8.90;;;;;;;15.97;67.38;94291.88;5046740;28;20028;-77
2023/05/17 08:22:49;;;;;;;16.88;8.80;;;;;;;16.14;66.59;94300.44;5029504;28;20033;-76
2023/05/17 08:25:15;;;;;;;14.32;8.55;;;;;;;16.23;66.36;94299.41;5038757;28;20025;-76
2023/05/17 08:27:40;;;;;;;12.82;8.07;;;;;;;16.31;65.38;94296.72;5023170;28;20036;-76
2023/05/17 08:30:07;;;;;;;13.90;8.32;;;;;;;16.30;65.37;94284.63;5020531;28;20029;-76
2023/05/17 08:32:32;;;;;;;12.20;7.95;;;;;;;16.52;65.10;94293.47;5032382;28;20179;-75
2023/05/17 08:34:57;;;;;;;12.05;8.20;;;;;;;16.60;65.23;94292.56;5022445;28;20518;-75
2023/05/17 08:37:23;;;;;;;13.98;7.00;;;;;;;16.70;63.70;94301.84;5040318;28;20404;-72
2023/05/17 08:39:50;;;;;;;11.80;6.68;;;;;;;16.67;63.64;94296.94;5047143;28;20481;-76
2023/05/17 08:42:18;;;;;;;9.90;7.30;;;;;;;16.82;63.89;94304.06;5046150;28;20118;-75
2023/05/17 08:44:43;;;;;;;12.40;7.07;;;;;;;16.66;63.60;94286.63;5043203;28;20195;-76
2023/05/17 08:47:10;;;;;;;12.63;6.90;;;;;;;16.52;63.94;94283.81;5010234;28;20041;-76
2023/05/17 08:49:36;;;;;;;14.07;7.10;;;;;;;16.65;63.51;94277.13;5045565;28;20761;-76
2023/05/17 08:52:08;;;;;;;11.27;6.63;;;;;;;16.68;62.41;94282.03;5012318;28;20029;-76
2023/05/17 08:54:34;;;;;;;14.68;7.60;;;;;;;16.82;63.45;94283.88;5029709;28;20045;-76
2023/05/17 08:57:00;;;;;;;14.95;6.90;;;;;;;16.86;63.24;94289.63;5043286;28;20033;-76
2023/05/17 08:59:32;;;;;;;11.45;6.63;;;;;;;16.88;62.67;94274.50;5029007;28;20037;-76
2023/05/17 09:01:57;;;;;;;13.35;6.93;;;;;;;16.81;61.71;94287.50;5013802;28;20120;-76
2023/05/17 09:04:23;;;;;;;15.80;7.20;;;;;;;16.68;63.72;94287.25;5009008;28;20029;-75
2023/05/17 09:06:49;;;;;;;17.30;6.25;;;;;;;16.59;63.62;94283.09;5010095;28;20029;-76
2023/05/17 09:09:14;;;;;;;8.57;6.00;;;;;;;16.66;63.29;94284.00;5030602;28;20053;-75
2023/05/17 09:11:40;;;;;;;14.95;7.45;;;;;;;16.78;63.46;94280.00;5015395;28;20044;-76
2023/05/17 09:14:06;;;;;;;12.40;6.22;;;;;;;16.83;63.53;94274.25;5045569;28;20407;-76
2023/05/17 09:16:32;;;;;;;16.83;6.72;;;;;;;16.85;62.90;94278.28;5027901;28;20043;-75
2023/05/17 09:18:58;;;;;;;8.50;6.18;;;;;;;16.97;63.31;94282.13;5029423;28;20033;-76
2023/05/17 09:21:24;;;;;;;10.68;5.97;;;;;;;16.98;62.43;94278.50;5028693;28;20033;-77
2023/05/17 09:23:50;;;;;;;9.73;5.35;;;;;;;16.86;63.61;94287.00;5028905;28;20033;-76
2023/05/17 09:26:17;;;;;;;14.00;8.23;;;;;;;16.98;64.57;94283.75;5040710;28;20048;-75
2023/05/17 09:28:42;;;;;;;14.35;8.30;;;;;;;16.94;65.04;94279.03;5032319;28;20029;-75
2023/05/17 09:31:08;;;;;;;12.00;6.32;;;;;;;17.04;63.47;94271.72;5048700;28;20094;-76
2023/05/17 09:33:46;;;;;;;10.68;5.95;;;;;;;17.04;63.18;94279.59;5050095;28;20108;-76
2023/05/17 09:36:22;;;;;;;14.30;6.38;;;;;;;17.15;63.07;94278.31;5031128;28;20044;-76
2023/05/17 09:38:58;;;;;;;11.30;6.18;;;;;;;17.31;61.91;94287.84;5032761;28;20021;-75
2023/05/17 09:41:39;;;;;;;11.23;5.80;;;;;;;17.25;62.11;94307.75;5033124;28;20036;-77
2023/05/17 09:44:08;;;;;;;16.15;6.97;;;;;;;17.19;62.03;94304.03;5034706;28;20499;-75
2023/05/17 09:46:33;;;;;;;11.93;6.20;;;;;;;16.94;62.39;94292.97;5025532;28;20029;-75
2023/05/17 09:49:00;;;;;;;14.00;6.05;;;;;;;17.11;63.15;94305.94;5015312;28;20044;-77
2023/05/17 09:51:38;;;;;;;11.70;6.05;;;;;;;17.10;63.20;94302.47;5036293;28;20033;-75
2023/05/17 09:54:05;;;;;;;9.80;6.45;;;;;;;16.92;63.09;94300.19;5018103;28;20038;-73
2023/05/17 09:56:31;;;;;;;12.27;6.43;;;;;;;17.03;63.34;94295.53;5012659;28;20728;-74
2023/05/17 09:58:58;;;;;;;14.27;7.03;;;;;;;17.24;62.35;94290.34;5041851;28;20033;-76
2023/05/17 10:01:27;;;;;;;10.60;6.35;;;;;;;17.18;63.25;94276.16;5010318;28;20633;-75
2023/05/17 10:03:52;;;;;;;11.63;6.03;;;;;;;16.92;62.94;94294.94;5034333;28;20388;-73
2023/05/17 10:06:19;;;;;;;12.07;6.40;;;;;;;16.77;63.46;94288.88;5025963;28;20087;-76
2023/05/17 10:08:45;;;;;;;11.23;5.85;;;;;;;16.72;63.98;94294.59;5028806;28;20053;-75
2023/05/17 10:11:11;;;;;;;12.85;6.63;;;;;;;16.88;63.90;94295.47;5025318;28;20518;-74
2023/05/17 10:13:41;;;;;;;14.13;6.35;;;;;;;16.97;63.53;94290.00;5021075;28;20033;-75
2023/05/17 10:16:06;;;;;;;14.35;6.15;;;;;;;16.97;62.59;94281.31;5040729;28;20030;-75
2023/05/17 10:18:32;;;;;;;12.60;6.80;;;;;;;16.68;63.05;94255.78;5038009;28;20045;-75
2023/05/17 10:20:57;;;;;;;12.88;5.90;;;;;;;17.00;62.98;94270.47;5040093;28;20044;-76
2023/05/17 10:23:23;;;;;;;9.80;5.82;;;;;;;17.03;63.07;94254.34;5048659;28;20029;-75
2023/05/17 10:25:48;;;;;;;15.73;6.47;;;;;;;17.07;63.77;94244.31;5027494;28;20029;-75
2023/05/17 10:28:15;;;;;;;9.82;6.03;;;;;;;17.08;65.54;94227.59;5011823;28;20650;-76
2023/05/17 10:30:42;;;;;;;16.00;6.60;;;;;;;17.24;64.05;94230.00;5046720;28;20033;-77
2023/05/17 10:33:07;;;;;;;11.57;6.45;;;;;;;17.28;65.00;94225.22;5013508;28;20276;-75
2023/05/17 10:35:33;;;;;;;12.60;6.90;;;;;;;17.52;62.84;94216.22;5043166;28;20040;-75
2023/05/17 10:37:59;;;;;;;12.80;6.63;;;;;;;17.42;64.06;94209.44;5013289;28;20487;-75
2023/05/17 10:40:24;;;;;;;11.68;5.88;;;;;;;17.47;61.13;94197.56;5045468;28;20037;-75
2023/05/17 10:42:51;;;;;;;14.52;5.70;;;;;;;17.33;62.64;94188.75;5029697;28;20039;-75
2023/05/17 10:45:19;;;;;;;9.60;6.25;;;;;;;17.37;62.99;94182.13;5044914;28;20033;-75
2023/05/17 10:47:45;;;;;;;11.73;5.80;;;;;;;17.49;62.33;94169.31;5014240;28;20048;-75
2023/05/17 10:50:14;;;;;;;11.57;5.10;;;;;;;17.37;60.68;94172.41;5028871;28;20593;-75
2023/05/17 10:52:47;;;;;;;13.60;5.30;;;;;;;17.43;61.52;94160.38;5031194;28;20048;-75
2023/05/17 10:55:12;;;;;;;9.55;5.07;;;;;;;17.01;61.57;94137.47;5046576;28;20027;-74
2023/05/17 10:57:37;;;;;;;9.00;5.13;;;;;;;17.23;61.88;94131.28;5042268;28;20418;-75
2023/05/17 11:00:07;;;;;;;13.68;5.35;;;;;;;17.49;61.47;94140.44;5047479;28;20037;-75
2023/05/17 11:02:33;;;;;;;11.10;5.23;;;;;;;17.53;62.27;94139.09;5047683;28;20122;-75
2023/05/17 11:05:00;;;;;;;7.70;5.00;;;;;;;17.49;61.53;94129.94;5031074;28;20396;-75
2023/05/17 11:07:31;;;;;;;10.02;5.43;;;;;;;17.49;61.79;94137.81;5031354;28;20106;-75
2023/05/17 11:10:04;;;;;;;8.27;4.93;;;;;;;16.88;62.74;94146.78;5045514;28;20427;-75
2023/05/17 11:12:37;;;;;;;10.50;6.15;;;;;;;16.95;64.86;94144.25;5047375;28;20115;-74
2023/05/17 11:15:13;;;;;;;11.57;6.30;;;;;;;16.99;65.23;94132.38;5027553;28;20034;-74
2023/05/17 11:17:42;;;;;;;13.02;7.43;;;;;;;16.99;65.21;94156.00;5012765;28;20499;-75
2023/05/17 11:20:14;;;;;;;16.67;6.57;;;;;;;16.87;64.79;94157.47;5046216;28;20546;-75
2023/05/17 11:23:06;;;;;;;12.95;6.20;;;;;;;17.16;64.44;94153.97;5046793;28;20525;-75
2023/05/17 11:25:36;;;;;;;13.02;6.03;;;;;;;16.96;65.36;94174.72;5047092;28;20029;-75